createdAt,value
2018-01-08T00:00:23.917Z,16.40
2018-01-08T00:02:51.435Z,14.97
2018-01-08T00:05:18.962Z,16.20
2018-01-08T00:07:47.246Z,14.13
2018-01-08T00:10:20.496Z,17.83
2018-01-08T00:12:48.024Z,16.40
2018-01-08T00:15:15.526Z,13.83
2018-01-08T00:17:43.052Z,15.90
2018-01-08T00:20:10.551Z,14.07
2018-01-08T00:22:38.055Z,17.90
2018-01-08T00:25:05.574Z,17.23
2018-01-08T00:27:33.070Z,15.53
2018-01-08T00:30:00.606Z,15.73
2018-01-08T00:32:28.871Z,19.57
2018-01-08T00:34:57.159Z,15.13
2018-01-08T00:37:25.427Z,16.97
2018-01-08T00:39:53.714Z,18.90
2018-01-08T00:42:21.979Z,15.80
2018-01-08T00:44:50.242Z,16.03
2018-01-08T00:47:17.762Z,19.80
2018-01-08T00:49:45.258Z,18.60
2018-01-08T00:52:12.782Z,19.77
2018-01-08T00:54:40.278Z,17.50
2018-01-08T00:57:07.807Z,16.97
2018-01-08T00:59:35.302Z,16.23
2018-01-08T01:02:03.595Z,14.50
2018-01-08T01:04:31.859Z,15.20
2018-01-08T01:07:00.139Z,16.23
2018-01-08T01:09:28.399Z,20.03
2018-01-08T01:11:55.898Z,19.20
2018-01-08T01:14:23.423Z,18.10
2018-01-08T01:16:51.686Z,17.00
2018-01-08T01:19:19.975Z,17.50
2018-01-08T01:21:47.474Z,13.80
2018-01-08T01:24:14.994Z,18.67
2018-01-08T01:26:43.254Z,18.17
2018-01-08T01:29:10.778Z,17.50
2018-01-08T01:31:38.274Z,18.10
2018-01-08T01:34:05.775Z,16.90
2018-01-08T01:36:33.298Z,17.60
2018-01-08T01:39:00.794Z,19.60
2018-01-08T01:41:28.323Z,17.20
2018-01-08T01:43:56.586Z,15.63
2018-01-08T01:46:24.115Z,16.80
2018-01-08T01:48:51.610Z,15.37
2018-01-08T01:51:19.130Z,16.40
2018-01-08T01:53:46.630Z,18.80
2018-01-08T01:56:14.890Z,17.87
2018-01-08T01:58:42.414Z,17.20
2018-01-08T02:01:09.910Z,16.93
2018-01-08T02:03:37.442Z,19.17
2018-01-08T02:06:04.941Z,19.90
2018-01-08T02:08:33.230Z,16.70
2018-01-08T02:11:01.495Z,15.37
2018-01-08T02:13:29.778Z,16.93
2018-01-08T02:15:58.048Z,16.17
2018-01-08T02:18:26.344Z,17.30
2018-01-08T02:20:53.843Z,16.43
2018-01-08T02:23:21.372Z,21.27
2018-01-08T02:25:48.895Z,19.20
2018-01-08T02:28:16.391Z,19.63
2018-01-08T02:30:43.915Z,19.07
2018-01-08T02:33:12.183Z,18.43
2018-01-08T02:35:39.703Z,17.50
2018-01-08T02:38:07.205Z,20.07
2018-01-08T02:40:34.704Z,20.83
2018-01-08T02:43:02.226Z,19.23
2018-01-08T02:45:30.490Z,17.40
2018-01-08T02:47:58.011Z,20.30
2018-01-08T02:50:25.506Z,19.07
2018-01-08T02:52:53.794Z,19.30
2018-01-08T02:55:22.058Z,19.77
2018-01-08T02:57:49.583Z,19.70
2018-01-08T03:00:17.079Z,18.10
2018-01-08T03:02:44.575Z,19.30
2018-01-08T03:05:12.094Z,20.03
2018-01-08T03:07:39.599Z,19.73
2018-01-08T03:10:07.122Z,19.87
2018-01-08T03:12:35.386Z,18.50
2018-01-08T03:15:02.916Z,18.60
2018-01-08T03:17:30.416Z,19.23
2018-01-08T03:19:58.703Z,20.33
2018-01-08T03:22:26.966Z,22.47
2018-01-08T03:24:55.231Z,19.80
2018-01-08T03:27:22.750Z,22.70
2018-01-08T03:29:50.251Z,20.40
2018-01-08T03:32:17.775Z,18.87
2018-01-08T03:34:45.271Z,20.93
2018-01-08T03:37:12.797Z,21.57
2018-01-08T03:39:40.298Z,19.13
2018-01-08T03:42:08.590Z,21.10
2018-01-08T03:44:36.086Z,20.70
2018-01-08T03:47:03.582Z,22.07
2018-01-08T03:49:31.103Z,17.73
2018-01-08T03:51:58.605Z,19.93
2018-01-08T03:54:26.943Z,23.03
2018-01-08T03:56:54.414Z,20.37
2018-01-08T03:59:22.514Z,22.17
2018-01-08T04:01:50.778Z,19.87
2018-01-08T04:04:18.299Z,18.90
2018-01-08T04:06:45.794Z,21.37
2018-01-08T04:09:13.292Z,20.60
2018-01-08T04:11:40.818Z,21.20
2018-01-08T04:14:08.314Z,24.87
2018-01-08T04:16:35.843Z,23.60
2018-01-08T04:19:04.107Z,23.23
2018-01-08T04:21:31.626Z,22.43
2018-01-08T04:23:59.123Z,22.70
2018-01-08T04:26:27.122Z,21.07
2018-01-08T04:28:54.623Z,22.57
2018-01-08T04:31:22.123Z,24.37
2018-01-08T04:33:50.411Z,24.30
2018-01-08T04:36:18.670Z,20.40
2018-01-08T04:38:46.954Z,24.70
2018-01-08T04:41:15.218Z,19.50
2018-01-08T04:43:42.734Z,23.40
2018-01-08T04:46:10.231Z,21.90
2018-01-08T04:48:37.750Z,21.50
2018-01-08T04:51:05.243Z,23.93
2018-01-08T04:53:32.741Z,20.17
2018-01-08T04:56:00.263Z,24.23
2018-01-08T04:58:27.763Z,21.27
2018-01-08T05:00:55.288Z,22.30
2018-01-08T05:03:22.786Z,22.80
2018-01-08T05:05:50.302Z,21.43
2018-01-08T05:08:17.799Z,26.13
2018-01-08T05:10:45.318Z,23.33
2018-01-08T05:13:12.815Z,21.30
2018-01-08T05:15:40.309Z,21.40
2018-01-08T05:18:07.835Z,23.07
2018-01-08T05:20:35.338Z,22.70
2018-01-08T05:23:04.366Z,23.57
2018-01-08T05:25:32.631Z,23.10
2018-01-08T05:28:00.915Z,23.43
2018-01-08T05:30:29.179Z,20.67
2018-01-08T05:32:57.470Z,21.13
2018-01-08T05:35:25.730Z,20.47
2018-01-08T05:37:53.231Z,21.83
2018-01-08T05:40:20.751Z,23.17
2018-01-08T05:42:49.010Z,19.60
2018-01-08T05:45:16.536Z,20.30
2018-01-08T05:47:44.035Z,22.00
2018-01-08T05:50:12.330Z,26.77
2018-01-08T05:52:40.590Z,26.50
2018-01-08T05:55:08.091Z,23.30
2018-01-08T05:57:35.610Z,29.10
2018-01-08T06:00:03.117Z,25.10
2018-01-08T06:02:30.647Z,21.50
2018-01-08T06:04:58.914Z,27.93
2018-01-08T06:07:27.202Z,21.93
2018-01-08T06:09:54.694Z,20.20
2018-01-08T06:12:22.215Z,23.73
2018-01-08T06:14:50.474Z,21.10
2018-01-08T06:17:18.743Z,22.77
2018-01-08T06:19:46.262Z,22.27
2018-01-08T06:22:13.757Z,25.10
2018-01-08T06:24:41.276Z,23.00
2018-01-08T06:27:08.770Z,24.60
2018-01-08T06:29:36.290Z,23.00
2018-01-08T06:32:03.787Z,22.80
2018-01-08T06:34:31.307Z,22.67
2018-01-08T06:36:58.810Z,22.47
2018-01-08T06:39:26.311Z,22.37
2018-01-08T06:41:53.832Z,20.70
2018-01-08T06:44:21.326Z,22.03
2018-01-08T06:46:48.846Z,24.03
2018-01-08T06:49:16.339Z,21.40
2018-01-08T06:51:43.865Z,23.53
2018-01-08T06:54:11.367Z,20.50
2018-01-08T06:56:38.887Z,21.63
2018-01-08T06:59:07.150Z,22.63
2018-01-08T07:01:34.650Z,23.83
2018-01-08T07:04:02.170Z,22.07
2018-01-08T07:06:30.431Z,25.60
2018-01-08T07:08:57.962Z,22.17
2018-01-08T07:11:25.462Z,24.50
2018-01-08T07:13:52.983Z,23.83
2018-01-08T07:16:20.483Z,26.67
2018-01-08T07:18:47.981Z,24.43
2018-01-08T07:21:15.499Z,26.00
2018-01-08T07:23:42.995Z,21.17
2018-01-08T07:26:10.519Z,22.87
2018-01-08T07:28:38.018Z,26.33
2018-01-08T07:31:05.548Z,21.90
2018-01-08T07:33:33.819Z,26.00
2018-01-08T07:36:02.102Z,20.80
2018-01-08T07:38:30.376Z,21.83
2018-01-08T07:40:58.662Z,22.33
2018-01-08T07:43:26.922Z,23.90
2018-01-08T07:45:55.181Z,23.80
2018-01-08T07:48:22.707Z,24.97
2018-01-08T07:53:25.902Z,23.60
2018-01-08T07:55:53.397Z,22.70
2018-01-08T07:58:20.919Z,23.67
2018-01-08T08:00:48.419Z,25.77
2018-01-08T08:03:15.942Z,23.93
2018-01-08T08:05:43.459Z,25.93
2018-01-08T08:08:11.726Z,27.13
2018-01-08T08:10:39.246Z,23.83
2018-01-08T08:13:06.768Z,20.73
2018-01-08T08:15:34.295Z,21.17
2018-01-08T08:18:01.792Z,24.90
2018-01-08T08:20:29.315Z,21.70
2018-01-08T08:22:56.810Z,27.83
2018-01-08T08:25:24.331Z,22.73
2018-01-08T08:27:51.827Z,26.40
2018-01-08T08:30:19.410Z,24.73
2018-01-08T08:32:47.638Z,25.03
2018-01-08T08:35:15.907Z,25.10
2018-01-08T08:37:43.430Z,23.90
2018-01-08T08:40:10.927Z,26.83
2018-01-08T08:42:38.451Z,24.50
2018-01-08T08:45:05.947Z,25.90
2018-01-08T08:47:34.231Z,24.90
2018-01-08T08:50:01.751Z,23.03
2018-01-08T08:52:29.275Z,26.23
2018-01-08T08:54:56.777Z,27.57
2018-01-08T08:57:24.294Z,26.83
2018-01-08T08:59:51.790Z,24.20
2018-01-08T09:02:19.295Z,24.43
2018-01-08T09:04:46.819Z,26.67
2018-01-08T09:07:14.314Z,22.93
2018-01-08T09:09:41.839Z,25.30
2018-01-08T09:12:10.843Z,23.90
2018-01-08T09:14:39.134Z,27.60
2018-01-08T09:17:07.394Z,27.97
2018-01-08T09:19:35.725Z,26.53
2018-01-08T09:22:03.203Z,23.73
2018-01-08T09:24:30.722Z,26.83
2018-01-08T09:26:58.225Z,26.57
2018-01-08T09:29:25.727Z,28.47
2018-01-08T09:31:53.247Z,30.13
2018-01-08T09:34:20.746Z,27.57
2018-01-08T09:36:48.264Z,27.33
2018-01-08T09:39:15.762Z,24.27
2018-01-08T09:41:43.282Z,26.80
2018-01-08T09:44:10.783Z,25.60
2018-01-08T09:46:38.306Z,24.60
2018-01-08T09:49:05.805Z,24.80
2018-01-08T09:51:33.335Z,25.70
2018-01-08T09:54:01.596Z,25.50
2018-01-08T09:56:29.096Z,24.73
2018-01-08T09:58:56.619Z,27.03
2018-01-08T10:01:24.115Z,30.03
2018-01-08T10:04:03.610Z,31.30
2018-01-08T10:06:42.971Z,33.80
2018-01-08T10:09:23.231Z,35.37
2018-01-08T10:12:03.212Z,31.67
2018-01-08T10:14:42.586Z,30.07
2018-01-08T10:17:21.877Z,23.37
2018-01-08T10:19:58.706Z,30.90
2018-01-08T10:22:26.204Z,26.07
2018-01-08T10:24:53.722Z,27.37
2018-01-08T10:27:21.224Z,33.80
2018-01-08T10:29:48.742Z,26.73
2018-01-08T10:32:16.246Z,26.90
2018-01-08T10:34:43.770Z,24.80
2018-01-08T10:37:12.035Z,29.00
2018-01-08T10:39:39.543Z,25.70
2018-01-08T10:42:12.799Z,25.80
2018-01-08T10:44:46.782Z,27.77
2018-01-08T10:47:19.970Z,24.50
2018-01-08T10:49:52.987Z,26.77
2018-01-08T10:52:20.783Z,24.47
2018-01-08T10:54:48.917Z,25.83
2018-01-08T10:57:16.439Z,24.93
2018-01-08T10:59:43.937Z,25.57
2018-01-08T11:02:17.834Z,24.03
2018-01-08T11:04:45.332Z,21.73
2018-01-08T11:07:12.851Z,25.90
2018-01-08T11:09:40.357Z,30.10
2018-01-08T11:12:07.875Z,23.50
2018-01-08T11:14:35.373Z,26.00
2018-01-08T11:17:02.896Z,23.77
2018-01-08T11:19:31.158Z,24.23
2018-01-08T11:21:58.683Z,26.13
2018-01-08T11:24:26.179Z,23.57
2018-01-08T11:26:53.674Z,22.30
2018-01-08T11:29:21.205Z,24.80
2018-01-08T11:31:49.476Z,22.13
2018-01-08T11:34:16.994Z,23.03
2018-01-08T11:36:44.496Z,17.57
2018-01-08T11:39:12.786Z,23.73
2018-01-08T11:41:41.054Z,21.80
2018-01-08T11:44:09.339Z,19.70
2018-01-08T11:46:37.615Z,17.77
2018-01-08T11:49:05.903Z,17.60
2018-01-08T11:51:33.404Z,19.30
2018-01-08T11:54:00.903Z,21.60
2018-01-08T11:56:29.190Z,18.00
2018-01-08T11:58:57.450Z,19.17
2018-01-08T12:01:25.742Z,18.20
2018-01-08T12:03:54.003Z,18.63
2018-01-08T12:06:22.287Z,19.50
2018-01-08T12:08:50.550Z,21.00
2018-01-08T12:11:18.834Z,21.10
2018-01-08T12:13:47.098Z,16.97
2018-01-08T12:16:14.614Z,20.77
2018-01-08T12:18:42.115Z,18.40
2018-01-08T12:21:09.611Z,18.13
2018-01-08T12:23:37.136Z,15.93
2018-01-08T12:26:04.637Z,19.60
2018-01-08T12:28:32.158Z,22.43
2018-01-08T12:31:00.418Z,18.30
2018-01-08T12:33:27.934Z,22.07
2018-01-08T12:35:55.430Z,20.07
2018-01-08T12:38:22.960Z,15.20
2018-01-08T12:40:50.462Z,18.70
2018-01-08T12:43:17.987Z,17.30
2018-01-08T12:45:45.485Z,18.53
2018-01-08T12:48:13.751Z,20.30
2018-01-08T12:50:41.270Z,15.60
2018-01-08T12:53:08.767Z,17.70
2018-01-08T12:55:36.287Z,14.40
2018-01-08T12:58:03.792Z,18.27
2018-01-08T13:00:32.079Z,15.30
2018-01-08T13:03:00.346Z,14.53
2018-01-08T13:05:28.630Z,14.67
2018-01-08T13:07:56.897Z,13.70
2018-01-08T13:10:25.173Z,15.90
2018-01-08T13:12:53.462Z,20.10
2018-01-08T13:15:21.734Z,19.43
2018-01-08T13:17:50.027Z,15.87
2018-01-08T13:20:17.522Z,17.10
2018-01-08T13:22:45.046Z,15.40
2018-01-08T13:25:12.542Z,15.07
2018-01-08T13:27:40.063Z,13.53
2018-01-08T13:30:07.567Z,15.00
2018-01-08T13:32:35.087Z,20.70
2018-01-08T13:35:02.587Z,16.77
2018-01-08T13:37:30.082Z,20.60
2018-01-08T13:39:58.384Z,22.47
2018-01-08T13:42:25.887Z,18.10
2018-01-08T13:44:53.411Z,21.00
2018-01-08T13:47:20.910Z,23.33
2018-01-08T13:49:48.430Z,19.40
2018-01-08T13:52:15.926Z,22.10
2018-01-08T13:54:43.446Z,20.77
2018-01-08T13:57:10.946Z,28.37
2018-01-08T13:59:38.471Z,23.83
2018-01-08T14:02:05.983Z,20.20
2018-01-08T14:04:34.272Z,20.13
2018-01-08T14:07:01.766Z,22.33
2018-01-08T14:09:29.263Z,20.13
2018-01-08T14:11:56.781Z,21.70
2018-01-08T14:14:24.284Z,19.87
2018-01-08T14:16:52.570Z,22.00
2018-01-08T14:19:20.835Z,22.20
2018-01-08T14:21:49.118Z,21.60
2018-01-08T14:24:17.387Z,19.20
2018-01-08T14:26:45.676Z,21.53
2018-01-08T14:29:13.943Z,20.57
2018-01-08T14:31:42.229Z,19.73
2018-01-08T14:34:10.503Z,21.07
2018-01-08T14:36:38.766Z,26.40
2018-01-08T14:39:06.290Z,22.40
2018-01-08T14:41:33.790Z,20.77
2018-01-08T14:44:02.079Z,21.50
2018-01-08T14:46:30.343Z,20.97
2018-01-08T14:48:58.627Z,21.70
2018-01-08T14:51:26.895Z,19.10
2018-01-08T14:53:55.185Z,20.73
2018-01-08T14:56:23.447Z,21.53
2018-01-08T14:58:51.734Z,18.33
2018-01-08T15:01:20.005Z,23.23
2018-01-08T15:03:48.279Z,22.83
2018-01-08T15:06:16.569Z,22.53
2018-01-08T15:08:44.063Z,20.93
2018-01-08T15:11:11.587Z,21.63
2018-01-08T15:13:39.083Z,22.27
2018-01-08T15:16:06.603Z,21.70
2018-01-08T15:18:34.123Z,19.83
2018-01-08T15:21:01.642Z,16.97
2018-01-08T15:23:29.141Z,21.33
2018-01-08T15:25:56.671Z,18.67
2018-01-08T15:28:24.168Z,21.87
2018-01-08T15:30:51.686Z,19.77
2018-01-08T15:33:19.182Z,18.93
2018-01-08T15:35:46.702Z,19.57
2018-01-08T15:38:14.199Z,19.30
2018-01-08T15:40:41.699Z,19.77
2018-01-08T15:43:09.218Z,19.30
2018-01-08T15:45:36.715Z,21.43
2018-01-08T15:48:04.239Z,22.70
2018-01-08T15:50:31.737Z,23.30
2018-01-08T15:52:59.254Z,21.20
2018-01-08T15:55:26.756Z,19.60
2018-01-08T15:57:54.279Z,18.13
2018-01-08T16:00:22.538Z,20.10
2018-01-08T16:02:50.035Z,22.03
2018-01-08T16:05:17.559Z,21.70
2018-01-08T16:07:45.055Z,17.50
2018-01-08T16:10:12.574Z,19.03
2018-01-08T16:12:40.074Z,19.63
2018-01-08T16:15:07.599Z,17.80
2018-01-08T16:17:35.095Z,19.37
2018-01-08T16:20:02.615Z,17.37
2018-01-08T16:22:30.114Z,21.80
2018-01-08T16:24:57.638Z,20.93
2018-01-08T16:27:25.922Z,18.83
2018-01-08T16:29:54.187Z,19.07
2018-01-08T16:32:21.710Z,19.30
2018-01-08T16:34:49.214Z,17.33
2018-01-08T16:37:17.498Z,18.07
2018-01-08T16:39:45.759Z,19.87
2018-01-08T16:42:14.042Z,17.17
2018-01-08T16:44:42.302Z,18.17
2018-01-08T16:47:09.825Z,16.97
2018-01-08T16:49:37.323Z,17.63
2018-01-08T16:52:04.822Z,20.33
2018-01-08T16:54:32.342Z,17.33
2018-01-08T16:57:00.606Z,18.10
2018-01-08T16:59:28.131Z,19.93
2018-01-08T17:01:55.627Z,23.57
2018-01-08T17:04:23.145Z,19.17
2018-01-08T17:06:50.642Z,19.00
2018-01-08T17:09:18.162Z,17.63
2018-01-08T17:11:45.654Z,15.47
2018-01-08T17:14:13.175Z,19.30
2018-01-08T17:16:40.671Z,15.80
2018-01-08T17:19:08.171Z,16.80
2018-01-08T17:21:35.698Z,22.43
2018-01-08T17:24:03.199Z,16.70
2018-01-08T17:26:30.724Z,19.57
2018-01-08T17:28:58.986Z,19.43
2018-01-08T17:31:26.512Z,22.00
2018-01-08T17:33:54.011Z,15.60
2018-01-08T17:36:22.299Z,18.83
2018-01-08T17:38:50.563Z,16.60
2018-01-08T17:41:18.854Z,17.13
2018-01-08T17:43:47.118Z,16.53
2018-01-08T17:46:15.379Z,15.83
2018-01-08T17:48:42.898Z,17.90
2018-01-08T17:51:10.394Z,17.47
2018-01-08T17:53:37.922Z,15.47
2018-01-08T17:56:05.418Z,15.27
2018-01-08T17:58:32.938Z,16.37
2018-01-08T18:01:00.437Z,16.87
2018-01-08T18:03:27.958Z,15.30
2018-01-08T18:05:55.450Z,15.40
2018-01-08T18:08:22.970Z,60.03
2018-01-08T18:10:50.472Z,22.27
2018-01-08T18:13:17.967Z,13.50
2018-01-08T18:15:45.487Z,10.87
2018-01-08T18:18:12.978Z,13.57
2018-01-08T18:20:40.490Z,11.70
2018-01-08T18:23:07.978Z,12.00
2018-01-08T18:25:36.258Z,11.40
2018-01-08T18:28:04.519Z,12.13
2018-01-08T18:30:32.030Z,10.80
2018-01-08T18:32:59.531Z,11.57
2018-01-08T18:35:27.050Z,11.70
2018-01-08T18:37:54.546Z,10.83
2018-01-08T18:40:22.038Z,9.83
2018-01-08T18:42:49.554Z,10.30
2018-01-08T18:45:17.047Z,9.00
2018-01-08T18:47:45.331Z,13.60
2018-01-08T18:50:12.827Z,10.07
2018-01-08T18:52:40.343Z,9.80
2018-01-08T18:55:07.835Z,9.90
2018-01-08T18:57:35.346Z,9.47
2018-01-08T19:00:03.612Z,10.10
2018-01-08T19:02:31.107Z,12.30
2018-01-08T19:04:58.636Z,10.67
2018-01-08T19:07:26.896Z,8.37
2018-01-08T19:09:54.415Z,10.30
2018-01-08T19:12:21.906Z,8.37
2018-01-08T19:14:49.423Z,11.23
2018-01-08T19:17:16.918Z,10.07
2018-01-08T19:19:44.435Z,8.33
2018-01-08T19:22:11.932Z,12.23
2018-01-08T19:24:39.442Z,8.90
2018-01-08T19:27:06.939Z,10.07
2018-01-08T19:29:34.467Z,8.83
2018-01-08T19:32:01.955Z,8.77
2018-01-08T19:34:29.450Z,10.93
2018-01-08T19:36:57.731Z,8.77
2018-01-08T19:39:25.986Z,8.90
2018-01-08T19:41:53.502Z,9.83
2018-01-08T19:44:20.997Z,8.00
2018-01-08T19:46:48.512Z,8.37
2018-01-08T19:49:16.006Z,12.63
2018-01-08T19:51:43.519Z,9.00
2018-01-08T19:54:11.013Z,10.33
2018-01-08T19:56:38.539Z,7.57
2018-01-08T19:59:06.026Z,8.80
2018-01-08T20:01:33.522Z,10.00
2018-01-08T20:04:01.802Z,8.43
2018-01-08T20:06:30.063Z,10.37
2018-01-08T20:08:57.587Z,10.30
2018-01-08T20:11:25.080Z,8.60
2018-01-08T20:13:52.594Z,9.10
2018-01-08T20:16:20.086Z,10.70
2018-01-08T20:18:47.599Z,9.70
2018-01-08T20:21:15.103Z,10.50
2018-01-08T20:23:42.620Z,11.00
2018-01-08T20:26:10.115Z,9.50
2018-01-08T20:28:37.637Z,11.17
2018-01-08T20:31:05.130Z,11.47
2018-01-08T20:33:32.626Z,9.23
2018-01-08T20:36:00.911Z,11.77
2018-01-08T20:38:29.162Z,8.90
2018-01-08T20:40:56.683Z,12.97
2018-01-08T20:43:24.179Z,14.33
2018-01-08T20:45:51.698Z,11.27
2018-01-08T20:48:19.186Z,8.70
2018-01-08T20:50:46.674Z,11.00
2018-01-08T20:53:14.951Z,11.83
2018-01-08T20:55:43.211Z,11.10
2018-01-08T20:58:10.731Z,12.60
2018-01-08T21:00:38.228Z,12.77
2018-01-08T21:03:05.758Z,12.73
2018-01-08T21:05:33.255Z,11.23
2018-01-08T21:08:01.536Z,10.23
2018-01-08T21:10:29.800Z,12.50
2018-01-08T21:12:58.062Z,11.70
2018-01-08T21:15:25.582Z,13.00
2018-01-08T21:20:19.030Z,12.40
2018-01-08T21:22:47.294Z,12.63
2018-01-08T21:25:15.583Z,12.93
2018-01-08T21:27:43.846Z,10.03
2018-01-08T21:30:12.131Z,15.30
2018-01-08T21:32:40.395Z,13.27
2018-01-08T21:35:07.891Z,10.63
2018-01-08T21:37:35.411Z,12.23
2018-01-08T21:40:02.907Z,13.30
2018-01-08T21:42:30.427Z,10.87
2018-01-08T21:44:57.931Z,13.10
2018-01-08T21:47:25.451Z,12.50
2018-01-08T21:49:53.715Z,12.93
2018-01-08T21:52:21.235Z,12.20
2018-01-08T21:54:48.730Z,10.60
2018-01-08T21:57:16.227Z,14.60
2018-01-08T21:59:43.742Z,11.40
2018-01-08T22:02:11.288Z,12.50
2018-01-08T22:04:38.782Z,14.40
2018-01-08T22:07:07.043Z,12.93
2018-01-08T22:09:34.558Z,12.90
2018-01-08T22:12:02.055Z,13.77
2018-01-08T22:14:29.574Z,14.37
2018-01-08T22:16:57.070Z,12.17
2018-01-08T22:19:24.586Z,12.40
2018-01-08T22:21:52.078Z,13.03
2018-01-08T22:24:19.594Z,12.07
2018-01-08T22:26:47.087Z,12.27
2018-01-08T22:29:14.611Z,12.20
2018-01-08T22:31:42.106Z,11.53
2018-01-08T22:34:09.599Z,11.90
2018-01-08T22:36:37.874Z,11.60
2018-01-08T22:39:06.130Z,11.63
2018-01-08T22:41:33.646Z,18.23
2018-01-08T22:44:01.147Z,13.97
2018-01-08T22:46:28.667Z,14.10
2018-01-08T22:48:56.167Z,14.00
2018-01-08T22:51:23.682Z,12.23
2018-01-08T22:53:51.179Z,16.90
2018-01-08T22:56:18.680Z,12.80
2018-01-08T22:58:46.203Z,12.60
2018-01-08T23:01:14.471Z,13.90
2018-01-08T23:03:41.986Z,15.27
2018-01-08T23:06:09.483Z,12.50
2018-01-08T23:08:38.513Z,13.23
2018-01-08T23:11:06.774Z,14.60
2018-01-08T23:13:35.058Z,14.50
2018-01-08T23:16:02.550Z,11.50
2018-01-08T23:18:30.042Z,12.90
2018-01-08T23:20:57.558Z,14.63
2018-01-08T23:23:25.055Z,15.43
2018-01-08T23:25:52.571Z,12.00
2018-01-08T23:28:20.062Z,11.17
2018-01-08T23:30:47.579Z,11.43
2018-01-08T23:33:15.075Z,10.97
2018-01-08T23:35:42.597Z,12.40
2018-01-08T23:38:10.090Z,12.20
2018-01-08T23:40:37.610Z,12.77
2018-01-08T23:43:05.102Z,14.17
2018-01-08T23:45:32.595Z,15.00
2018-01-08T23:48:00.115Z,12.60
2018-01-08T23:50:27.611Z,11.00
2018-01-08T23:52:55.126Z,12.27
2018-01-08T23:55:22.618Z,12.87
2018-01-08T23:57:50.138Z,12.50
